createdAt,value
2023-04-10T00:00:01.014Z,101244.80
2023-04-10T00:05:08.955Z,101248.20
2023-04-10T00:10:14.855Z,101234.80
2023-04-10T00:15:20.687Z,101235.20
2023-04-10T00:20:26.749Z,101228.60
2023-04-10T00:25:32.354Z,101227.00
2023-04-10T00:30:37.949Z,101222.20
2023-04-10T00:35:43.848Z,101227.80
2023-04-10T00:40:49.365Z,101223.60
2023-04-10T00:45:55.019Z,101216.60
2023-04-10T00:51:01.161Z,101217.00
2023-04-10T00:56:09.042Z,101217.60
2023-04-10T01:01:14.887Z,101214.00
2023-04-10T01:06:35.881Z,101213.00
2023-04-10T01:11:54.296Z,101211.40
2023-04-10T01:17:07.884Z,101201.60
2023-04-10T01:22:17.769Z,101196.80
2023-04-10T01:27:45.110Z,101197.40
2023-04-10T01:32:53.780Z,101199.00
2023-04-10T01:38:02.411Z,101205.40
2023-04-10T01:43:12.147Z,101212.40
2023-04-10T01:48:18.450Z,101208.00
2023-04-10T01:53:25.246Z,101217.00
2023-04-10T01:58:32.035Z,101221.00
2023-04-10T02:03:38.030Z,101215.40
2023-04-10T02:08:55.835Z,101215.20
2023-04-10T02:14:06.206Z,101216.00
2023-04-10T02:19:13.116Z,101218.40
2023-04-10T02:24:19.826Z,101223.80
2023-04-10T02:29:25.550Z,101215.60
2023-04-10T02:34:31.206Z,101219.00
2023-04-10T02:39:37.157Z,101214.80
2023-04-10T02:44:43.029Z,101211.60
2023-04-10T02:49:48.688Z,101215.80
2023-04-10T02:54:54.669Z,101211.80
2023-04-10T03:00:00.430Z,101213.00
2023-04-10T03:05:08.398Z,101213.40
2023-04-10T03:10:14.225Z,101208.60
2023-04-10T03:15:20.298Z,101207.20
2023-04-10T03:20:26.153Z,101206.20
2023-04-10T03:25:33.969Z,101211.00
2023-04-10T03:30:40.024Z,101208.40
2023-04-10T03:35:47.036Z,101217.20
2023-04-10T03:40:53.475Z,101220.80
2023-04-10T03:45:59.391Z,101215.20
2023-04-10T03:51:06.755Z,101217.60
2023-04-10T03:56:12.453Z,101213.80
2023-04-10T04:01:18.226Z,101212.60
2023-04-10T04:06:24.089Z,101213.80
2023-04-10T04:11:30.971Z,101217.60
2023-04-10T04:16:36.837Z,101229.40
2023-04-10T04:21:42.490Z,101230.60
2023-04-10T04:26:48.499Z,101231.40
2023-04-10T04:31:54.452Z,101236.40
2023-04-10T04:37:00.830Z,101235.20
2023-04-10T04:42:07.276Z,101242.60
2023-04-10T04:47:13.016Z,101253.60
2023-04-10T04:52:18.880Z,101254.40
2023-04-10T04:57:24.649Z,101259.60
2023-04-10T05:02:30.690Z,101266.00
2023-04-10T05:07:36.764Z,101271.40
2023-04-10T05:12:42.833Z,101269.40
2023-04-10T05:17:50.642Z,101276.20
2023-04-10T05:22:57.819Z,101273.40
2023-04-10T05:28:03.437Z,101276.00
2023-04-10T05:33:09.347Z,101278.20
2023-04-10T05:38:14.973Z,101282.40
2023-04-10T05:43:21.491Z,101289.20
2023-04-10T05:48:28.408Z,101293.20
2023-04-10T05:53:34.238Z,101290.40
2023-04-10T05:58:39.930Z,101295.40
2023-04-10T06:03:45.715Z,101299.60
2023-04-10T06:08:51.994Z,101300.40
2023-04-10T06:13:58.413Z,101299.00
2023-04-10T06:19:04.214Z,101300.60
2023-04-10T06:24:11.667Z,101295.00
2023-04-10T06:29:18.562Z,101290.00
2023-04-10T06:34:24.498Z,101293.60
2023-04-10T06:39:30.282Z,101295.40
2023-04-10T06:44:36.085Z,101303.00
2023-04-10T06:49:41.852Z,101309.60
2023-04-10T06:54:47.693Z,101307.80
2023-04-10T06:59:53.340Z,101316.00
2023-04-10T07:04:59.186Z,101321.20
2023-04-10T07:10:06.026Z,101320.60
2023-04-10T07:15:12.959Z,101322.80
2023-04-10T07:20:18.900Z,101326.00
2023-04-10T07:25:24.675Z,101325.40
2023-04-10T07:30:30.622Z,101332.00
2023-04-10T07:35:36.582Z,101335.80
2023-04-10T07:40:42.342Z,101330.60
2023-04-10T07:45:48.981Z,101342.40
2023-04-10T07:50:55.694Z,101344.80
2023-04-10T07:56:01.471Z,101350.60
2023-04-10T08:01:08.313Z,101343.20
2023-04-10T08:06:14.723Z,101339.80
2023-04-10T08:11:28.804Z,101343.60
2023-04-10T08:16:38.079Z,101351.00
2023-04-10T08:21:44.032Z,101351.80
2023-04-10T08:26:50.160Z,101352.60
2023-04-10T08:31:56.093Z,101341.60
2023-04-10T08:37:05.642Z,101346.40
2023-04-10T08:42:11.367Z,101345.60
2023-04-10T08:47:22.290Z,101349.80
2023-04-10T08:52:31.287Z,101355.80
2023-04-10T08:57:42.826Z,101366.60
2023-04-10T09:02:54.845Z,101355.60
2023-04-10T09:08:03.584Z,101360.40
2023-04-10T09:13:09.477Z,101349.60
2023-04-10T09:18:15.293Z,101340.80
2023-04-10T09:23:24.094Z,101340.20
2023-04-10T09:28:30.467Z,101335.40
2023-04-10T09:33:36.310Z,101328.80
2023-04-10T09:38:42.153Z,101331.20
2023-04-10T09:43:48.310Z,101317.20
2023-04-10T09:49:00.999Z,101318.20
2023-04-10T09:54:07.103Z,101313.00
2023-04-10T09:59:16.242Z,101303.80
2023-04-10T10:04:22.285Z,101301.20
2023-04-10T10:09:29.399Z,101296.20
2023-04-10T10:14:38.346Z,101293.40
2023-04-10T10:19:57.255Z,101281.60
2023-04-10T10:25:04.602Z,101278.60
2023-04-10T10:30:25.673Z,101272.40
2023-04-10T10:35:36.208Z,101266.40
2023-04-10T10:40:51.968Z,101269.20
2023-04-10T10:46:04.383Z,101264.20
2023-04-10T10:51:11.420Z,101264.60
2023-04-10T10:56:38.581Z,101279.00
2023-04-10T11:02:18.591Z,101259.00
2023-04-10T11:08:02.516Z,101268.00
2023-04-10T11:13:20.773Z,101258.20
2023-04-10T11:19:14.211Z,101248.00
2023-04-10T11:24:22.161Z,101244.40
2023-04-10T11:29:37.209Z,101238.80
2023-04-10T11:34:47.438Z,101219.20
2023-04-10T11:40:07.408Z,101215.20
2023-04-10T11:45:30.404Z,101219.20
2023-04-10T11:50:36.359Z,101216.20
2023-04-10T11:55:42.231Z,101209.20
2023-04-10T12:00:55.733Z,101207.60
2023-04-10T12:06:01.949Z,101206.20
2023-04-10T12:11:10.022Z,101203.00
2023-04-10T12:16:16.502Z,101201.00
2023-04-10T12:21:22.953Z,101199.20
2023-04-10T12:26:28.649Z,101196.40
2023-04-10T12:31:37.199Z,101188.20
2023-04-10T12:36:43.120Z,101182.80
2023-04-10T12:41:48.957Z,101180.00
2023-04-10T12:47:02.223Z,101169.80
2023-04-10T12:52:07.873Z,101165.00
2023-04-10T12:57:28.368Z,101165.00
2023-04-10T13:02:34.505Z,101160.40
2023-04-10T13:07:41.256Z,101149.20
2023-04-10T13:12:48.379Z,101144.80
2023-04-10T13:17:54.161Z,101136.80
2023-04-10T13:22:59.918Z,101127.20
2023-04-10T13:28:09.689Z,101124.80
2023-04-10T13:33:15.643Z,101118.80
2023-04-10T13:38:21.496Z,101115.00
2023-04-10T13:43:27.280Z,101107.80
2023-04-10T13:48:40.033Z,101099.40
2023-04-10T13:53:46.536Z,101099.40
2023-04-10T13:58:52.577Z,101089.60
2023-04-10T14:03:58.588Z,101095.20
2023-04-10T14:09:04.442Z,101078.40
2023-04-10T14:14:10.325Z,101074.20
2023-04-10T14:19:15.969Z,101072.00
2023-04-10T14:24:21.845Z,101071.20
2023-04-10T14:29:37.460Z,101063.00
2023-04-10T14:34:46.571Z,101057.00
2023-04-10T14:39:52.503Z,101054.20
2023-04-10T14:44:58.384Z,101050.60
2023-04-10T14:50:04.607Z,101044.80
2023-04-10T14:55:12.049Z,101029.80
2023-04-10T15:00:18.940Z,101034.20
2023-04-10T15:05:25.677Z,101020.60
2023-04-10T15:10:32.644Z,101023.00
2023-04-10T15:15:38.674Z,101018.00
2023-04-10T15:20:44.473Z,101018.80
2023-04-10T15:25:50.190Z,101004.60
2023-04-10T15:30:57.213Z,101000.80
2023-04-10T15:36:03.561Z,100998.80
2023-04-10T15:41:14.532Z,100952.40
2023-04-10T15:46:20.375Z,100913.60
2023-04-10T15:51:27.456Z,100919.60
2023-04-10T15:56:33.985Z,100919.20
2023-04-10T16:01:39.730Z,100921.00
2023-04-10T16:06:45.686Z,101006.60
2023-04-10T16:11:52.304Z,100986.20
2023-04-10T16:16:58.153Z,100975.60
2023-04-10T16:22:03.979Z,100966.60
2023-04-10T16:27:09.731Z,100952.80
2023-04-10T16:32:15.587Z,100948.40
2023-04-10T16:37:21.386Z,100940.00
2023-04-10T16:42:27.175Z,100936.00
2023-04-10T16:47:33.107Z,100931.60
2023-04-10T16:52:38.769Z,100918.40
2023-04-10T16:57:44.943Z,100915.00
2023-04-10T17:02:50.626Z,100904.80
2023-04-10T17:07:57.374Z,100908.40
2023-04-10T17:13:03.096Z,100892.00
2023-04-10T17:18:09.116Z,100898.80
2023-04-10T17:23:15.048Z,100897.20
2023-04-10T17:28:21.019Z,100892.20
2023-04-10T17:33:26.784Z,100894.00
2023-04-10T17:38:32.605Z,100896.20
2023-04-10T17:43:38.233Z,100893.00
2023-04-10T17:48:44.172Z,100900.60
2023-04-10T17:53:50.431Z,100895.60
2023-04-10T17:58:56.630Z,100891.60
2023-04-10T18:04:03.556Z,100898.60
2023-04-10T18:09:09.528Z,100889.20
2023-04-10T18:14:15.688Z,100889.00
2023-04-10T18:19:21.418Z,100889.20
2023-04-10T18:24:27.698Z,100890.20
2023-04-10T18:29:34.135Z,100887.40
2023-04-10T18:34:40.187Z,100893.40
2023-04-10T18:39:46.195Z,100890.40
2023-04-10T18:44:52.183Z,100887.20
2023-04-10T18:49:58.140Z,100895.00
2023-04-10T18:55:04.162Z,100906.60
2023-04-10T19:00:13.545Z,100903.80
2023-04-10T19:05:19.596Z,100891.80
2023-04-10T19:10:25.480Z,100885.80
2023-04-10T19:15:31.107Z,100883.80
2023-04-10T19:20:48.921Z,100869.40
2023-04-10T19:25:59.294Z,100871.20
2023-04-10T19:31:05.117Z,100869.80
2023-04-10T19:36:11.492Z,100857.40
2023-04-10T19:41:18.025Z,100852.60
2023-04-10T19:46:24.047Z,100844.40
2023-04-10T19:51:29.988Z,100839.80
2023-04-10T19:56:37.346Z,100830.60
2023-04-10T20:01:43.140Z,100825.20
2023-04-10T20:06:48.907Z,100825.60
2023-04-10T20:11:54.610Z,100819.00
2023-04-10T20:17:00.886Z,100804.00
2023-04-10T20:22:07.393Z,100799.80
2023-04-10T20:27:14.523Z,100792.80
2023-04-10T20:32:20.204Z,100788.00
2023-04-10T20:37:26.109Z,100778.60
2023-04-10T20:42:31.796Z,100772.80
2023-04-10T20:47:37.516Z,100771.60
2023-04-10T20:52:43.475Z,100769.00
2023-04-10T20:57:49.116Z,100762.80
2023-04-10T21:02:54.981Z,100747.40
2023-04-10T21:08:00.864Z,100751.20
2023-04-10T21:13:06.539Z,100739.40
2023-04-10T21:18:12.393Z,100742.80
2023-04-10T21:23:18.088Z,100737.60
2023-04-10T21:28:23.861Z,100731.40
2023-04-10T21:33:29.631Z,100724.00
2023-04-10T21:38:35.501Z,100718.40
2023-04-10T21:43:42.737Z,100713.20
2023-04-10T21:48:48.359Z,100703.80
2023-04-10T21:53:54.229Z,100696.80
2023-04-10T21:59:00.045Z,100697.00
2023-04-10T22:04:06.477Z,100688.40
2023-04-10T22:09:12.438Z,100681.40
2023-04-10T22:14:20.065Z,100677.80
2023-04-10T22:19:27.191Z,100680.20
2023-04-10T22:24:35.256Z,100676.20
2023-04-10T22:29:43.502Z,100669.80
2023-04-10T22:34:53.612Z,100666.60
2023-04-10T22:40:00.188Z,100665.80
2023-04-10T22:45:08.048Z,100659.60
2023-04-10T22:50:14.632Z,100656.40
2023-04-10T22:55:21.037Z,100645.00
2023-04-10T23:00:27.636Z,100634.20
2023-04-10T23:05:33.539Z,100619.60
2023-04-10T23:10:39.395Z,100608.60
2023-04-10T23:15:50.874Z,100600.80
2023-04-10T23:20:56.531Z,100584.80
2023-04-10T23:26:02.602Z,100580.00
2023-04-10T23:31:09.434Z,100566.60
2023-04-10T23:36:15.159Z,100557.60
2023-04-10T23:41:21.888Z,100549.80
2023-04-10T23:46:27.829Z,100542.60
2023-04-10T23:51:33.581Z,100531.60
2023-04-10T23:56:39.425Z,100527.20
